Randall Island, California
Current Conditions -  °F | °C
As of 8:53 PM on Saturday 22 Nov 2014 (Local Time) from KSAC Reporting Station
Moderate Fog Moderate Fog  
Wind Chill: 49°   Ceiling: 600
Heat Index: 49°   Visibility: 0.25mi
Dew Point: 48°   Wind: 0mph
Humidity: 97%   Direction: NA
Pressure: 30.21"   Gusts: NA
Location:  38.3168°N, 121.532°W
Report Text: KSAC 230453Z 00000KT 1/4SM FG VV006 09/09 A3021 RMK AO2 SLP228 T00940089
Loading
Personal Weather Stations






























Interactive Weather Map New forecast layout! Learn more

10-Day Weather Forecast

Advertisements
Track Severe Weather on mobile